Página principal
METAR-TAF:

METAR-TAF

Aeroportos :

Harbin, China

Aeroporto Internacional Harbin Taiping

latitude: 45-45N, longitude: 126-46E, altura: 143 m

Observação actual do tempo

O boletim foi feito há 18 minutos, às 21:00 UTC
Vento 6 kt de su-sudeste, variando entre es-sudeste e sul
Temperatura 15°C
Humidade 63%
Pressão 1004 hPa
Visibilidade 10 km ou mais
sem nuvens abaixo de 1500 metros e sem cumulonimbus

METAR: ZYHB 272100Z 16003MPS 120V190 CAVOK 15/08 Q1004 NOSIG

Hora: 05:18 (21:18 UTC)

Previsão

O boletim foi feito há 6 horas e 17 minutos, às 15:01 UTC
Previsão válida de 27 às 18 UTC a 28 às 18 UTC
Vento 8 kt de sul
Visibilidade: 6000 m
Poucas nuvensa uma altura de 3000 ft
Tornando-se
de 28 às 01 UTC a 28 às 02 UTC
Vento 12 kt de oes-sudoeste
Tornando-se
de 28 às 07 UTC a 28 às 08 UTC
Vento 12 kt de oes-noroeste

TAF: ZYHB 271501Z 2718/2818 18004MPS 6000 FEW030 TX25/2806Z TN10/2720Z BECMG 2801/2802 24006MPS BECMG 2807/2808 30006MPS

Observações e previsões do tempo de mais de 4000 aeroportos (mensagens METAR e TAF).

As estações disponíveis são os pontos amarelos e vermelhos sobre o mapa.

Mova o rato sobre o mapa para ver o nome da estação.

Depois clique no ponto para visualizar as observações e previsões meteorológicas.

Para alterar o mapa : clique nos botões verdes com uma cruz preta para aumentar o zoom; no botão verde com uma pitada de zoom; ou nas setas verdes para mapas adjacentes.


METAR-TAF: